Latest Weather Observations for Cressy

IDT60801

Issued at 10:35 pm EDT Tuesday 21 October 2014 (issued every 30 minutes, with the page automatically refreshed every 10 minutes)

About weather observations | Map of weather stations | Latest weather observations for TAS | Other Formats
Station Details ID: 091306 Name: CRESSY RESEARCH STATION Lat: -41.73 Lon: 147.08 Height: 148.0 m
Data from the previous 72 hours. | See also: Recent months at Cressy
Date/Time
EDT
Temp
°C
App
Temp
°C
Dew
Point
Rel
Hum
%
Delta-T
°C
Wind Press
QNH
hPa
Press
MSL
hPa
Rain
since 9 am
mm
Dir
 
Spd
km/h
Gust
km/h
Spd
kts
Gust
kts
21/10:30pm 10.9 6.4 6.8 76 2.0 NW 20 28 11 15 - - 0.0
21/10:00pm 11.2 6.8 7.3 77 1.9 NW 20 30 11 16 - - 0.0
21/09:30pm 11.2 6.4 7.5 78 1.8 NW 22 32 12 17 - - 0.0
21/09:00pm 11.4 6.3 7.7 78 1.8 NNW 24 33 13 18 - - 0.0
21/08:30pm 11.3 7.0 8.0 80 1.6 NNW 20 26 11 14 - - 0.0
21/08:00pm 11.0 7.3 8.0 82 1.5 NNW 17 20 9 11 - - 0.0
21/07:30pm 12.9 9.2 8.0 72 2.4 NNW 17 20 9 11 - - 0.0
21/07:00pm 14.7 11.0 8.0 64 3.4 NNW 17 22 9 12 - - 0.0
21/06:30pm 15.9 11.6 7.9 59 4.0 NNW 20 28 11 15 - - 0.0
21/06:00pm 16.5 12.1 7.4 55 4.6 NNW 20 28 11 15 - - 0.0
21/05:30pm 17.1 13.4 8.0 55 4.6 NW 17 28 9 15 - - 0.0
21/05:00pm 17.0 13.6 7.6 54 4.8 NW 15 20 8 11 - - 0.0
21/04:30pm 16.9 13.0 7.3 53 4.8 NNW 17 24 9 13 - - 0.0
21/04:00pm 16.4 11.9 6.0 50 5.1 WNW 19 26 10 14 - - 0.0
21/03:30pm 16.3 11.7 6.7 53 4.8 NNW 20 28 11 15 - - 0.0
21/03:00pm 15.9 11.4 6.9 55 4.5 WNW 20 28 11 15 - - 0.0
21/02:30pm 15.6 11.0 6.6 55 4.4 WNW 20 32 11 17 - - 0.0
21/02:00pm 15.1 10.5 6.4 56 4.2 NW 20 30 11 16 - - 0.0
21/01:30pm 15.0 11.1 7.3 60 3.8 NW 17 32 9 17 - - 0.0
21/01:00pm 14.5 10.2 7.1 61 3.6 WNW 19 24 10 13 - - 0.0
21/12:30pm 13.4 10.2 7.0 65 3.1 WNW 13 20 7 11 - - 0.0
21/12:00pm 13.0 9.3 6.1 63 3.3 WNW 15 20 8 11 - - 0.0
21/11:30am 12.7 9.2 5.6 62 3.3 WNW 13 20 7 11 - - 0.0
21/11:00am 11.6 7.9 4.3 61 3.3 NW 13 19 7 10 - - 0.0
21/10:30am 11.9 9.3 6.2 68 2.7 WNW 9 15 5 8 - - 0.0
21/10:00am 11.4 9.4 6.9 74 2.2 W 7 11 4 6 - - 0.0
21/09:30am 9.9 8.4 7.0 82 1.4 NW 4 9 2 5 - - 0.0
21/09:00am 8.9 8.4 7.8 93 0.5 CALM 0 0 0 0 - - 0.0
21/08:30am 8.0 7.4 7.6 97 0.2 CALM 0 0 0 0 - - 0.0
21/08:00am 7.1 6.3 6.7 97 0.2 CALM 0 0 0 0 - - 0.0
21/07:30am 6.5 5.6 6.2 98 0.1 CALM 0 0 0 0 - - 0.0
21/07:00am 6.1 5.1 5.8 98 0.1 CALM 0 0 0 0 - - 0.0
21/06:30am 5.7 4.7 5.4 98 0.1 CALM 0 0 0 0 - - 0.0
21/06:00am 5.7 3.9 5.4 98 0.1 SSE 4 7 2 4 - - 0.0
21/05:30am 5.3 4.2 5.0 98 0.1 CALM 0 0 0 0 - - 0.0
21/05:00am 4.9 3.7 4.6 98 0.1 CALM 0 6 0 3 - - 0.0
21/04:30am 4.8 3.6 4.5 98 0.1 CALM 0 0 0 0 - - 0.0
21/04:00am 4.5 3.2 4.2 98 0.1 CALM 0 0 0 0 - - 0.0
21/03:30am 4.8 3.6 4.5 98 0.1 CALM 0 0 0 0 - - 0.0
21/03:00am 4.9 2.4 4.6 98 0.1 SSW 7 9 4 5 - - 0.0
21/02:30am 5.2 4.1 4.9 98 0.1 CALM 0 0 0 0 - - 0.0
21/02:00am 5.3 4.2 5.0 98 0.1 CALM 0 0 0 0 - - 0.0
21/01:30am 4.9 3.7 4.6 98 0.1 CALM 0 0 0 0 - - 0.0
21/01:00am 4.5 3.2 4.2 98 0.1 CALM 0 0 0 0 - - 0.0
21/12:30am 3.6 1.8 3.2 97 0.2 W 2 6 1 3 - - 0.0
21/12:00am 3.6 1.4 3.2 97 0.2 SW 4 9 2 5 - - 0.0
 
Date/Time
EDT
Temp
°C
App
Temp
°C
Dew
Point
Rel
Hum
%
Delta-T
°C
Wind Press
QNH
hPa
Press
MSL
hPa
Rain
since 9 am
mm
Dir
 
Spd
km/h
Gust
km/h
Spd
kts
Gust
kts
20/11:30pm 3.5 1.5 2.5 93 0.4 S 2 7 1 4 - - 0.0
20/11:00pm 4.3 2.7 2.3 87 0.8 CALM 0 0 0 0 - - 0.0
20/10:30pm 5.1 2.2 2.8 85 0.9 SSE 7 9 4 5 - - 0.0
20/10:00pm 4.9 1.8 1.6 79 1.3 S 7 9 4 5 - - 0.0
20/09:30pm 7.1 3.5 2.8 74 1.8 N 11 13 6 7 - - 0.0
20/09:00pm 7.9 3.6 3.0 71 2.1 N 15 20 8 11 - - 0.0
20/08:30pm 8.0 3.4 3.5 73 1.9 N 17 20 9 11 - - 0.0
20/08:00pm 9.2 4.5 3.4 67 2.5 N 17 20 9 11 - - 0.0
20/07:30pm 10.7 5.7 3.5 61 3.2 N 19 24 10 13 - - 0.0
20/07:00pm 12.3 8.4 3.3 54 4.0 N 13 24 7 13 - - 0.0
20/06:30pm 14.6 12.0 1.2 40 5.8 N 4 7 2 4 - - 0.0
20/06:00pm 15.1 12.3 3.0 44 5.5 N 7 9 4 5 - - 0.0
20/05:30pm 15.3 12.6 2.5 42 5.8 N 6 11 3 6 - - 0.0
20/05:00pm 15.4 12.6 2.9 43 5.7 NNW 7 11 4 6 - - 0.0
20/04:30pm 15.5 13.0 3.6 45 5.5 N 6 11 3 6 - - 0.0
20/04:00pm 14.8 11.9 1.3 40 5.9 WSW 6 9 3 5 - - 0.0
20/03:30pm 14.8 11.2 0.6 38 6.1 NNE 9 15 5 8 - - 0.0
20/03:00pm 14.6 11.4 2.8 45 5.3 NNE 9 17 5 9 - - 0.0
20/02:30pm 14.2 10.8 2.1 44 5.4 N 9 13 5 7 - - 0.0
20/02:00pm 13.5 10.5 2.1 46 5.0 NW 7 9 4 5 - - 0.0
20/01:30pm 13.4 10.0 3.8 52 4.4 SSE 11 17 6 9 - - 0.0
20/01:00pm 12.5 9.5 0.9 45 4.9 SSE 6 15 3 8 - - 0.0
20/12:30pm 12.2 7.9 1.2 47 4.7 ENE 13 20 7 11 - - 0.0
20/12:00pm 12.2 6.7 2.1 50 4.4 SE 20 26 11 14 - - 0.0
20/11:30am 11.8 8.0 1.7 50 4.3 NE 11 19 6 10 - - 0.0
20/11:00am 11.2 6.7 2.2 54 3.9 ESE 15 22 8 12 - - 0.0
20/10:30am 10.4 5.9 2.0 56 3.6 SE 15 22 8 12 - - 0.0
20/10:00am 9.5 4.8 1.2 56 3.4 SE 15 22 8 12 - - 0.0
20/09:30am 8.7 3.9 -0.1 54 3.5 SSE 15 20 8 11 - - 0.0
20/09:00am 7.9 3.8 2.0 66 2.5 SSE 13 20 7 11 - - 0.0
20/08:30am 6.7 1.6 1.0 67 2.3 SSE 17 20 9 11 - - 0.0
20/08:00am 6.3 1.3 1.2 70 2.0 SSE 17 24 9 13 - - 0.0
20/07:30am 4.5 -0.6 0.8 77 1.4 SSE 17 22 9 12 - - 0.0
20/07:00am 2.5 -1.6 -0.3 82 1.0 S 11 15 6 8 - - 0.0
20/06:30am 1.9 -2.7 -0.8 82 1.0 S 13 17 7 9 - - 0.0
20/06:00am 2.0 -2.6 -1.1 80 1.1 WSW 13 15 7 8 - - 0.0
20/05:30am 3.9 -1.5 -1.3 69 1.9 WSW 17 22 9 12 - - 0.0
20/05:00am 4.0 -1.6 0.0 75 1.5 WSW 19 26 10 14 - - 0.0
20/04:30am 3.7 -1.1 -0.1 76 1.4 WSW 15 19 8 10 - - 0.0
20/04:00am 3.5 -0.6 -0.5 75 1.5 WNW 11 15 6 8 - - 0.0
20/03:30am 3.4 -1.1 -0.4 76 1.4 S 13 19 7 10 - - 0.0
20/03:00am 3.1 -0.7 -0.9 75 1.5 W 9 13 5 7 - - 0.0
20/02:30am 3.1 -0.7 -1.1 74 1.5 S 9 13 5 7 - - 0.0
20/02:00am 5.2 2.0 -0.6 66 2.2 N 6 9 3 5 - - 0.0
20/01:30am 4.0 0.5 -1.0 70 1.8 ENE 7 11 4 6 - - 0.0
20/01:00am 4.8 -0.1 -0.2 70 1.9 S 15 19 8 10 - - 0.0
20/12:30am 5.5 1.5 0.3 69 2.0 SSW 11 19 6 10 - - 0.0
20/12:00am 6.9 1.0 -0.8 58 3.0 SSW 20 35 11 19 - - 0.0
 
Date/Time
EDT
Temp
°C
App
Temp
°C
Dew
Point
Rel
Hum
%
Delta-T
°C
Wind Press
QNH
hPa
Press
MSL
hPa
Rain
since 9 am
mm
Dir
 
Spd
km/h
Gust
km/h
Spd
kts
Gust
kts
19/11:30pm 7.1 0.8 -0.8 57 3.0 SSW 22 37 12 20 - - 0.0
19/11:00pm 7.2 1.0 1.9 69 2.2 S 24 33 13 18 - - 0.0
19/10:30pm 8.4 2.0 1.1 60 3.0 SW 24 33 13 18 - - 0.0
19/10:00pm 8.5 2.3 2.1 64 2.7 SW 24 37 13 20 - - 0.0
19/09:50pm 9.0 2.1 2.3 63 2.8 SW 28 43 15 23 - - 0.0
19/09:30pm 8.8 4.0 2.6 65 2.6 SW 17 24 9 13 - - 0.0
19/09:00pm 9.6 3.1 2.9 63 2.9 SW 26 43 14 23 - - 0.0
19/08:30pm 11.0 5.8 2.6 56 3.6 WSW 19 26 10 14 - - 0.0
19/08:00pm 11.8 7.1 3.1 55 3.9 WSW 17 32 9 17 - - 0.0
19/07:30pm 10.5 8.0 6.5 76 1.9 W 9 13 5 7 - - 0.0
19/07:00pm 11.0 9.1 5.1 67 2.7 WSW 4 11 2 6 - - 0.0
19/06:30pm 11.6 5.0 4.1 60 3.4 SW 28 39 15 21 - - 0.0
19/06:00pm 11.8 4.4 4.1 59 3.5 SSW 32 46 17 25 - - 0.0
19/05:46pm 13.1 6.7 5.0 58 3.8 SW 28 46 15 25 - - 0.0
19/05:30pm 15.6 9.9 4.9 49 5.1 W 24 33 13 18 - - 0.0
19/05:00pm 16.3 12.9 5.9 50 5.1 WNW 13 17 7 9 - - 0.0
19/04:30pm 16.8 12.2 6.6 51 5.1 W 20 28 11 15 - - 0.0
19/04:00pm 17.6 15.3 7.6 52 5.1 NW 9 13 5 7 - - 0.0
19/03:30pm 18.1 15.4 7.5 50 5.4 W 11 15 6 8 - - 0.0
19/03:00pm 19.1 14.4 7.8 48 5.8 WNW 22 32 12 17 - - 0.0
19/02:30pm 19.7 14.9 11.7 60 4.5 N 28 39 15 21 - - 0.0
19/02:00pm 20.5 15.4 12.0 58 4.8 N 30 44 16 24 - - 0.0
19/01:30pm 20.7 15.2 11.9 57 4.9 N 32 43 17 23 - - 0.0
19/01:00pm 20.3 13.7 10.1 52 5.5 N 35 44 19 24 - - 0.0
19/12:30pm 19.6 13.8 12.6 64 4.0 N 35 43 19 23 - - 0.0
19/12:00pm 17.4 11.2 11.4 68 3.3 N 35 43 19 23 - - 0.0
19/11:30am 17.3 12.2 12.0 71 2.9 N 30 39 16 21 - - 0.0
19/11:00am 16.7 12.2 12.5 76 2.3 N 28 43 15 23 - - 0.0
19/10:30am 16.1 10.8 13.2 83 1.6 N 33 44 18 24 - - 0.0
19/10:00am 15.4 10.1 13.1 86 1.3 N 33 39 18 21 - - 0.0
19/09:30am 15.0 10.6 13.0 88 1.1 N 28 35 15 19 - - 0.0
19/09:00am 14.5 10.3 13.4 93 0.6 N 28 35 15 19 - - 0.0
19/08:30am 13.5 8.8 12.1 91 0.8 N 28 35 15 19 - - 0.0
19/08:00am 12.6 9.0 11.8 95 0.4 N 22 28 12 15 - - 0.0
19/07:30am 11.5 7.7 11.0 97 0.3 N 22 28 12 15 - - 0.0
19/07:00am 10.9 6.9 10.4 97 0.3 N 22 30 12 16 - - 0.0
19/06:30am 10.6 6.9 10.1 97 0.3 N 20 28 11 15 - - 0.0
19/06:00am 10.5 6.8 10.0 97 0.3 N 20 30 11 16 - - 0.0
19/05:30am 10.7 6.6 10.2 97 0.3 N 22 28 12 15 - - 0.0
19/05:00am 10.0 7.1 9.7 98 0.2 N 15 20 8 11 - - 0.0
19/04:30am 8.6 5.7 8.3 98 0.1 N 13 17 7 9 - - 0.0
19/04:00am 9.1 5.2 8.6 97 0.2 N 19 22 10 12 - - 0.0
19/03:30am 9.1 5.2 8.8 98 0.1 N 19 24 10 13 - - 0.0
19/03:00am 9.1 6.0 8.8 98 0.1 N 15 20 8 11 - - 0.0
19/02:30am 9.2 6.1 8.7 97 0.2 N 15 19 8 10 - - 0.0
19/02:00am 9.6 5.6 9.1 97 0.2 N 20 28 11 15 - - 0.0
19/01:30am 9.6 4.1 9.1 97 0.2 N 28 33 15 18 - - 0.0
19/01:00am 10.4 6.6 9.0 91 0.7 N 19 24 10 13 - - 0.0
19/12:30am 10.1 6.8 9.6 97 0.3 N 17 22 9 12 - - 0.0
19/12:00am 10.1 7.6 9.6 97 0.3 N 13 17 7 9 - - 0.0
 
Date/Time
EDT
Temp
°C
App
Temp
°C
Dew
Point
Rel
Hum
%
Delta-T
°C
Wind Press
QNH
hPa
Press
MSL
hPa
Rain
since 9 am
mm
Dir
 
Spd
km/h
Gust
km/h
Spd
kts
Gust
kts
18/11:30pm 10.4 7.6 9.9 97 0.3 N 15 20 8 11 - - 0.0
18/11:00pm 11.1 8.0 10.2 94 0.5 N 17 22 9 12 - - 0.0

Other Formats:

Comma delimited format used in spreadsheet applications
http://www.bom.gov.au/fwo/IDT60801/IDT60801.95969.axf

JavaScript Object Notation format (JSON) in row-major order
http://www.bom.gov.au/fwo/IDT60801/IDT60801.95969.json